Terminal Aerodrome Forecast
Issued by NWS Portland, OR

Home | Current Version | Previous Version | Text Only | Print | Product List | Glossary On
Versions: 1 2 3 4 5 6 7 8 9 10 11 12 13 14 15 16 17 18 19 20 21 22 23 24
000
FTUS46 KPQR 180531
TAFPDX
TAF
KPDX 180531Z 1806/1906 23010KT P6SM SCT025 BKN045 OVC060
     FM181400 23009KT P6SM -SHRA SCT015 OVC025
     FM181800 22008KT 5SM -RA BR BKN015 OVC025
     FM182100 25007KT P6SM -SHRA SCT015 BKN025 OVC035
     FM190100 30006KT P6SM -SHRASN SCT020 OVC035=

USA.gov is the U.S. government's official web portal to all federal, state and local government web resources and services.